Time;durP1;ratioP1;P1;durP2;ratioP2;P2;SDS_P1;SDS_P2;PMS_P1;PMS_P2;Temp;Humidity;BMP_temperature;BMP_pressure;BME280_temperature;BME280_humidity;BME280_pressure;Samples;Min_cycle;Max_cycle;Signal;HPM_P1;HPM_P2
2023/04/24 00:01:10;;;;;;;4.60;2.60;;;;;;;;;;5016123;28;20026;-77
2023/04/24 00:03:35;;;;;;;4.57;2.80;;;;;;;;;;5016863;28;20057;-77
2023/04/24 00:06:00;;;;;;;4.10;2.70;;;;;;;;;;5015071;28;20393;-77
2023/04/24 00:08:26;;;;;;;3.90;2.88;;;;;;;;;;5016020;28;20627;-78
2023/04/24 00:10:52;;;;;;;4.38;2.85;;;;;;;;;;5016122;28;20025;-76
2023/04/24 00:13:18;;;;;;;4.53;2.60;;;;;;;;;;5015348;28;20038;-77
2023/04/24 00:15:43;;;;;;;4.80;3.10;;;;;;;;;;5014987;28;20034;-77
2023/04/24 00:18:08;;;;;;;5.80;2.40;;;;;;;;;;5015004;28;20113;-77
2023/04/24 00:20:35;;;;;;;4.55;2.80;;;;;;;;;;5015053;28;20302;-77
2023/04/24 00:23:00;;;;;;;5.78;2.80;;;;;;;;;;5015035;28;20428;-78
2023/04/24 00:25:25;;;;;;;6.97;2.75;;;;;;;;;;5015538;28;20021;-76
2023/04/24 00:27:51;;;;;;;7.13;2.95;;;;;;;;;;5014918;28;20022;-77
2023/04/24 00:30:16;;;;;;;5.18;2.95;;;;;;;;;;5015125;28;20053;-77
2023/04/24 00:32:41;;;;;;;6.53;2.95;;;;;;;;;;5014010;28;20037;-78
2023/04/24 00:35:07;;;;;;;4.63;2.58;;;;;;;;;;5014282;28;20068;-77
2023/04/24 00:37:32;;;;;;;5.57;2.60;;;;;;;;;;5016573;28;20033;-78
2023/04/24 00:39:57;;;;;;;4.07;2.47;;;;;;;;;;5014274;28;20026;-77
2023/04/24 00:42:23;;;;;;;3.03;2.30;;;;;;;;;;5014479;28;20045;-77
2023/04/24 00:44:48;;;;;;;4.55;2.75;;;;;;;;;;5016796;28;20030;-78
2023/04/24 00:47:14;;;;;;;5.35;2.75;;;;;;;;;;5018506;28;20448;-77
2023/04/24 00:49:39;;;;;;;4.47;2.60;;;;;;;;;;5018555;28;20478;-77
2023/04/24 00:52:08;;;;;;;3.20;2.53;;;;;;;;;;5018419;28;20037;-77
2023/04/24 00:54:34;;;;;;;4.97;2.53;;;;;;;;;;5018396;28;20022;-77
2023/04/24 00:57:01;;;;;;;4.25;2.50;;;;;;;;;;5017008;28;20029;-77
2023/04/24 00:59:26;;;;;;;6.22;2.75;;;;;;;;;;5018400;28;20393;-78
2023/04/24 01:01:52;;;;;;;8.55;2.80;;;;;;;;;;5019415;28;20022;-79
2023/04/24 01:04:18;;;;;;;5.13;2.38;;;;;;;;;;5019436;28;20030;-77
2023/04/24 01:06:45;;;;;;;5.40;2.58;;;;;;;;;;5017493;28;20485;-78
2023/04/24 01:09:11;;;;;;;7.43;2.55;;;;;;;;;;5018802;28;20022;-79
2023/04/24 01:11:37;;;;;;;4.88;2.67;;;;;;;;;;5016983;28;20030;-77
2023/04/24 01:14:02;;;;;;;7.63;2.97;;;;;;;;;;5016566;28;20036;-77
2023/04/24 01:16:28;;;;;;;4.20;2.65;;;;;;;;;;5018746;28;20215;-78
2023/04/24 01:18:53;;;;;;;3.97;2.72;;;;;;;;;;5016481;28;20026;-77
2023/04/24 01:21:21;;;;;;;4.43;2.63;;;;;;;;;;5017909;28;20026;-77
2023/04/24 01:23:47;;;;;;;6.15;2.95;;;;;;;;;;5017565;28;20053;-77
2023/04/24 01:26:14;;;;;;;3.67;2.50;;;;;;;;;;5016791;28;20496;-77
2023/04/24 01:28:39;;;;;;;4.00;2.60;;;;;;;;;;5017847;28;20018;-77
2023/04/24 01:31:05;;;;;;;5.72;2.80;;;;;;;;;;5016441;28;20547;-78
2023/04/24 01:33:31;;;;;;;3.97;2.55;;;;;;;;;;5017901;28;20497;-77
2023/04/24 01:35:57;;;;;;;4.63;2.70;;;;;;;;;;5017154;28;20017;-77
2023/04/24 01:38:22;;;;;;;4.68;2.97;;;;;;;;;;5017199;28;20030;-77
2023/04/24 01:40:47;;;;;;;5.38;2.53;;;;;;;;;;5018976;28;20025;-77
2023/04/24 01:43:13;;;;;;;4.17;3.00;;;;;;;;;;5017747;28;20037;-77
2023/04/24 01:45:38;;;;;;;5.47;2.72;;;;;;;;;;5017774;28;20271;-76
2023/04/24 01:48:04;;;;;;;5.00;2.97;;;;;;;;;;5017838;28;20026;-76
2023/04/24 01:50:29;;;;;;;4.53;2.72;;;;;;;;;;5017848;28;20030;-78
2023/04/24 01:52:55;;;;;;;6.05;2.78;;;;;;;;;;5018242;28;20022;-77
2023/04/24 01:55:20;;;;;;;4.93;2.97;;;;;;;;;;5017137;28;20033;-78
2023/04/24 01:57:45;;;;;;;5.65;3.17;;;;;;;;;;5017205;28;20041;-78
2023/04/24 02:00:12;;;;;;;5.20;2.90;;;;;;;;;;5017624;28;20025;-77
2023/04/24 02:02:38;;;;;;;4.38;2.80;;;;;;;;;;5018151;28;20517;-77
2023/04/24 02:05:06;;;;;;;4.53;2.47;;;;;;;;;;5017669;28;20053;-77
2023/04/24 02:07:32;;;;;;;5.82;3.10;;;;;;;;;;5017738;28;20413;-77
2023/04/24 02:09:57;;;;;;;5.43;2.97;;;;;;;;;;5017936;28;20034;-77
2023/04/24 02:12:23;;;;;;;4.75;2.92;;;;;;;;;;5016874;28;20105;-77
2023/04/24 02:14:48;;;;;;;4.13;2.78;;;;;;;;;;5016876;28;20038;-76
2023/04/24 02:17:15;;;;;;;5.53;2.97;;;;;;;;;;5017383;28;20030;-78
2023/04/24 02:19:40;;;;;;;5.15;3.00;;;;;;;;;;5016706;28;20349;-77
2023/04/24 02:22:05;;;;;;;4.03;2.92;;;;;;;;;;5016906;28;20033;-77
2023/04/24 02:24:31;;;;;;;7.07;3.03;;;;;;;;;;5016432;28;20021;-77
2023/04/24 02:26:57;;;;;;;4.07;2.85;;;;;;;;;;5017023;28;20300;-77
2023/04/24 02:29:23;;;;;;;6.15;2.95;;;;;;;;;;5016750;28;20401;-77
2023/04/24 02:31:48;;;;;;;4.47;3.15;;;;;;;;;;5015807;28;20022;-77
2023/04/24 02:34:13;;;;;;;4.87;3.00;;;;;;;;;;5014857;28;20029;-77
2023/04/24 02:36:38;;;;;;;4.80;2.90;;;;;;;;;;5016258;28;20338;-76
2023/04/24 02:39:03;;;;;;;7.47;3.10;;;;;;;;;;5016025;28;20275;-77
2023/04/24 02:41:31;;;;;;;6.73;3.27;;;;;;;;;;5016110;28;20258;-77
2023/04/24 02:43:57;;;;;;;4.25;3.30;;;;;;;;;;5016065;28;20755;-77
2023/04/24 02:46:22;;;;;;;5.30;3.28;;;;;;;;;;5015280;28;20396;-77
2023/04/24 02:48:48;;;;;;;6.00;3.13;;;;;;;;;;5016360;28;20098;-78
2023/04/24 02:51:13;;;;;;;5.10;3.27;;;;;;;;;;5018222;28;20746;-77
2023/04/24 02:53:38;;;;;;;5.97;3.40;;;;;;;;;;5020244;28;20267;-77
2023/04/24 02:56:03;;;;;;;6.57;3.25;;;;;;;;;;5018209;28;20777;-77
2023/04/24 02:58:29;;;;;;;6.20;3.05;;;;;;;;;;5017518;28;20440;-77
2023/04/24 03:00:57;;;;;;;5.40;3.03;;;;;;;;;;5017870;28;20022;-77
2023/04/24 03:03:23;;;;;;;5.32;3.42;;;;;;;;;;5017997;28;20068;-77
2023/04/24 03:05:48;;;;;;;6.32;3.28;;;;;;;;;;5016430;28;20021;-77
2023/04/24 03:08:14;;;;;;;9.00;3.20;;;;;;;;;;5016903;28;20104;-77
2023/04/24 03:10:39;;;;;;;4.20;3.15;;;;;;;;;;5017697;28;20290;-77
2023/04/24 03:13:05;;;;;;;6.38;3.38;;;;;;;;;;5018075;28;20085;-77
2023/04/24 03:15:30;;;;;;;5.43;3.42;;;;;;;;;;5015193;28;20029;-77
2023/04/24 03:17:55;;;;;;;6.23;3.20;;;;;;;;;;5016271;28;20034;-77
2023/04/24 03:20:21;;;;;;;6.67;3.40;;;;;;;;;;5017339;28;20800;-77
2023/04/24 03:22:46;;;;;;;4.25;3.38;;;;;;;;;;5017048;28;20763;-77
2023/04/24 03:25:11;;;;;;;5.03;3.00;;;;;;;;;;5016723;28;20033;-77
2023/04/24 03:27:37;;;;;;;6.90;3.33;;;;;;;;;;5014222;28;20105;-77
2023/04/24 03:30:03;;;;;;;4.55;3.08;;;;;;;;;;5013916;28;20026;-77
2023/04/24 03:32:28;;;;;;;4.18;3.05;;;;;;;;;;5014042;28;20488;-77
2023/04/24 03:34:53;;;;;;;5.07;3.20;;;;;;;;;;5014046;28;20029;-77
2023/04/24 03:37:18;;;;;;;5.57;3.17;;;;;;;;;;5014197;28;20026;-78
2023/04/24 03:39:44;;;;;;;4.78;3.50;;;;;;;;;;5014364;28;20283;-77
2023/04/24 03:42:09;;;;;;;8.57;3.80;;;;;;;;;;5014431;28;20137;-77
2023/04/24 03:44:35;;;;;;;6.10;3.60;;;;;;;;;;5013899;28;20025;-76
2023/04/24 03:47:00;;;;;;;8.18;3.47;;;;;;;;;;5012809;28;20734;-76
2023/04/24 03:49:26;;;;;;;8.23;3.30;;;;;;;;;;5012628;28;20036;-76
2023/04/24 03:51:52;;;;;;;8.50;3.58;;;;;;;;;;5013406;28;20088;-77
2023/04/24 03:54:18;;;;;;;8.30;3.88;;;;;;;;;;5014385;28;20048;-78
2023/04/24 03:56:43;;;;;;;5.43;3.75;;;;;;;;;;5014458;28;20481;-77
2023/04/24 03:59:08;;;;;;;6.40;3.73;;;;;;;;;;5012999;28;20374;-77
2023/04/24 04:01:36;;;;;;;6.43;4.38;;;;;;;;;;5014885;28;20724;-77
2023/04/24 04:04:03;;;;;;;7.22;3.75;;;;;;;;;;5014110;28;20060;-78
2023/04/24 04:06:28;;;;;;;6.57;3.67;;;;;;;;;;5014521;28;20495;-77
2023/04/24 04:08:53;;;;;;;6.70;3.35;;;;;;;;;;5013747;28;20024;-77
2023/04/24 04:11:18;;;;;;;10.38;3.65;;;;;;;;;;5014416;28;20385;-77
2023/04/24 04:13:44;;;;;;;7.57;3.43;;;;;;;;;;5013993;28;20030;-77
2023/04/24 04:16:09;;;;;;;5.20;3.90;;;;;;;;;;5015245;28;20268;-78
2023/04/24 04:18:34;;;;;;;6.55;3.72;;;;;;;;;;5014126;28;20283;-78
2023/04/24 04:21:01;;;;;;;6.45;3.40;;;;;;;;;;5012747;28;20152;-77
2023/04/24 04:23:26;;;;;;;6.70;3.45;;;;;;;;;;5012657;28;20030;-77
2023/04/24 04:25:51;;;;;;;7.28;3.38;;;;;;;;;;5014469;28;20021;-78
2023/04/24 04:28:19;;;;;;;6.13;3.70;;;;;;;;;;5014259;28;20477;-77
2023/04/24 04:30:45;;;;;;;6.22;3.30;;;;;;;;;;5014115;28;20072;-77
2023/04/24 04:33:10;;;;;;;7.97;3.10;;;;;;;;;;5013011;28;20022;-77
2023/04/24 04:35:36;;;;;;;5.20;3.43;;;;;;;;;;5014454;28;20037;-77
2023/04/24 04:38:01;;;;;;;5.45;3.28;;;;;;;;;;5014687;28;20259;-77
2023/04/24 04:40:28;;;;;;;4.90;3.07;;;;;;;;;;5013955;28;20456;-77
2023/04/24 04:42:53;;;;;;;6.53;3.63;;;;;;;;;;5013719;28;20286;-77
2023/04/24 04:45:20;;;;;;;7.30;3.50;;;;;;;;;;5013597;28;20424;-77
2023/04/24 04:47:45;;;;;;;10.48;3.60;;;;;;;;;;5014146;28;20041;-77
2023/04/24 04:50:11;;;;;;;7.45;3.72;;;;;;;;;;5013838;28;20018;-78
2023/04/24 04:52:36;;;;;;;5.60;3.58;;;;;;;;;;5013555;28;20026;-77
2023/04/24 04:55:01;;;;;;;5.47;3.27;;;;;;;;;;5013742;28;20417;-76
2023/04/24 04:57:27;;;;;;;4.43;3.17;;;;;;;;;;5014065;28;20665;-76
2023/04/24 04:59:52;;;;;;;4.28;2.80;;;;;;;;;;5013783;28;20037;-77
2023/04/24 05:02:17;;;;;;;4.45;2.97;;;;;;;;;;5013865;28;20099;-77
2023/04/24 05:04:43;;;;;;;5.13;2.65;;;;;;;;;;5013728;28;20048;-77
2023/04/24 05:07:08;;;;;;;5.47;3.23;;;;;;;;;;5014225;28;20026;-76
2023/04/24 05:09:33;;;;;;;4.13;2.77;;;;;;;;;;5012971;28;20263;-76
2023/04/24 05:11:58;;;;;;;5.83;2.60;;;;;;;;;;5013130;28;20271;-77
2023/04/24 05:14:24;;;;;;;8.43;2.47;;;;;;;;;;5013326;28;20271;-77
2023/04/24 05:16:49;;;;;;;5.77;2.77;;;;;;;;;;5013845;28;20267;-77
2023/04/24 05:19:14;;;;;;;7.03;2.75;;;;;;;;;;5014231;28;20350;-78
2023/04/24 05:21:40;;;;;;;7.35;2.92;;;;;;;;;;5013893;28;20061;-77
2023/04/24 05:24:06;;;;;;;4.47;2.35;;;;;;;;;;5012515;28;20033;-76
2023/04/24 05:26:31;;;;;;;7.05;2.20;;;;;;;;;;5012721;28;20061;-77
2023/04/24 05:28:56;;;;;;;4.45;1.88;;;;;;;;;;5013734;28;20025;-76
2023/04/24 05:31:22;;;;;;;7.03;1.70;;;;;;;;;;5016088;28;20058;-77
2023/04/24 05:33:47;;;;;;;4.50;2.00;;;;;;;;;;5015998;28;20275;-77
2023/04/24 05:36:13;;;;;;;2.43;1.50;;;;;;;;;;5017159;28;20255;-76
2023/04/24 05:38:38;;;;;;;4.07;1.75;;;;;;;;;;5017229;28;20278;-77
2023/04/24 05:41:03;;;;;;;4.32;1.77;;;;;;;;;;5017179;28;20105;-77
2023/04/24 05:43:28;;;;;;;5.13;1.60;;;;;;;;;;5016691;28;20049;-77
2023/04/24 05:45:54;;;;;;;5.57;1.20;;;;;;;;;;5015380;28;20196;-77
2023/04/24 05:48:19;;;;;;;3.72;1.50;;;;;;;;;;5015417;28;20349;-77
2023/04/24 05:50:45;;;;;;;3.55;1.38;;;;;;;;;;5016360;28;20060;-78
2023/04/24 05:53:10;;;;;;;4.82;1.38;;;;;;;;;;5017292;28;20449;-77
2023/04/24 05:55:36;;;;;;;8.52;1.30;;;;;;;;;;5017006;28;20029;-76
2023/04/24 05:58:01;;;;;;;5.80;1.42;;;;;;;;;;5017660;28;20032;-77
2023/04/24 06:00:26;;;;;;;2.73;1.43;;;;;;;;;;5018129;28;20057;-77
2023/04/24 06:02:52;;;;;;;1.40;1.13;;;;;;;;;;5015455;28;20275;-77
2023/04/24 06:05:17;;;;;;;2.05;1.10;;;;;;;;;;5016903;28;20030;-77
2023/04/24 06:07:43;;;;;;;2.33;1.33;;;;;;;;;;5016910;28;20033;-77
2023/04/24 06:10:09;;;;;;;4.78;2.10;;;;;;;;;;5017119;28;20022;-77
2023/04/24 06:12:35;;;;;;;7.55;1.98;;;;;;;;;;5016876;28;20060;-77
2023/04/24 06:15:00;;;;;;;10.80;1.70;;;;;;;;;;5016583;28;20109;-76
2023/04/24 06:17:26;;;;;;;5.53;1.40;;;;;;;;;;5017532;28;20103;-76
2023/04/24 06:19:51;;;;;;;7.75;1.88;;;;;;;;;;5015309;28;20500;-76
2023/04/24 06:22:16;;;;;;;2.37;1.07;;;;;;;;;;5016093;28;20125;-76
2023/04/24 06:24:41;;;;;;;3.40;1.20;;;;;;;;;;5016279;28;20255;-76
2023/04/24 06:27:07;;;;;;;4.43;1.33;;;;;;;;;;5015990;28;20273;-77
2023/04/24 06:29:33;;;;;;;4.70;1.45;;;;;;;;;;5016075;28;20095;-77
2023/04/24 06:31:58;;;;;;;4.78;1.42;;;;;;;;;;5016511;28;20034;-77
2023/04/24 06:34:23;;;;;;;3.58;1.30;;;;;;;;;;5015942;28;20404;-77
2023/04/24 06:36:49;;;;;;;4.80;1.40;;;;;;;;;;5016383;28;20532;-77
2023/04/24 06:39:14;;;;;;;1.98;1.00;;;;;;;;;;5016247;28;20639;-78
2023/04/24 06:41:39;;;;;;;2.72;0.90;;;;;;;;;;5015590;28;20029;-74
2023/04/24 06:44:05;;;;;;;0.98;0.80;;;;;;;;;;5015798;28;20053;-74
2023/04/24 06:46:30;;;;;;;0.93;0.70;;;;;;;;;;5016915;28;20057;-75
2023/04/24 06:48:56;;;;;;;1.90;1.02;;;;;;;;;;5016591;28;20473;-77
2023/04/24 06:51:25;;;;;;;6.68;1.20;;;;;;;;;;5016450;28;20076;-76
2023/04/24 06:53:51;;;;;;;1.77;1.10;;;;;;;;;;5015955;28;20108;-76
2023/04/24 06:56:17;;;;;;;3.80;2.20;;;;;;;;;;5015408;28;20038;-77
2023/04/24 06:58:42;;;;;;;2.08;1.00;;;;;;;;;;5014019;28;20030;-76
2023/04/24 07:01:07;;;;;;;1.08;0.85;;;;;;;;;;5015427;28;20025;-75
2023/04/24 07:03:32;;;;;;;1.10;0.80;;;;;;;;;;5015756;28;20037;-77
2023/04/24 07:05:58;;;;;;;1.20;0.82;;;;;;;;;;5015462;28;20255;-77
2023/04/24 07:08:23;;;;;;;3.10;0.80;;;;;;;;;;5015517;28;20072;-77
2023/04/24 07:10:50;;;;;;;2.58;1.50;;;;;;;;;;5015240;28;20021;-76
2023/04/24 07:13:15;;;;;;;1.10;0.82;;;;;;;;;;5015332;28;20025;-76
2023/04/24 07:15:41;;;;;;;1.55;0.70;;;;;;;;;;5015166;28;20165;-75
2023/04/24 07:18:06;;;;;;;3.38;0.80;;;;;;;;;;5013478;28;20026;-77
2023/04/24 07:20:32;;;;;;;1.80;0.70;;;;;;;;;;5014926;28;20026;-77
2023/04/24 07:22:58;;;;;;;1.23;0.70;;;;;;;;;;5015187;28;20053;-77
2023/04/24 07:25:23;;;;;;;1.20;0.90;;;;;;;;;;5015118;28;20489;-76
2023/04/24 07:27:48;;;;;;;3.93;0.93;;;;;;;;;;5014806;28;20773;-77
2023/04/24 07:30:14;;;;;;;3.22;0.70;;;;;;;;;;5014504;28;20247;-77
2023/04/24 07:32:39;;;;;;;1.05;0.60;;;;;;;;;;5014636;28;20040;-77
2023/04/24 07:35:05;;;;;;;5.93;0.88;;;;;;;;;;5014902;28;20030;-76
2023/04/24 07:37:30;;;;;;;7.03;0.98;;;;;;;;;;5014459;28;20024;-76
2023/04/24 07:39:56;;;;;;;2.22;0.65;;;;;;;;;;5013399;28;20080;-77
2023/04/24 07:42:21;;;;;;;1.17;0.60;;;;;;;;;;5015728;28;20105;-77
2023/04/24 07:44:47;;;;;;;0.93;0.80;;;;;;;;;;5015755;28;20034;-77
2023/04/24 07:47:14;;;;;;;0.95;0.60;;;;;;;;;;5015984;28;20267;-78
2023/04/24 07:49:41;;;;;;;1.33;0.70;;;;;;;;;;5015567;28;20100;-77
2023/04/24 07:52:06;;;;;;;2.40;0.52;;;;;;;;;;5016000;28;20040;-77
2023/04/24 07:54:31;;;;;;;2.30;0.60;;;;;;;;;;5015533;28;20347;-77
2023/04/24 07:56:57;;;;;;;1.23;0.70;;;;;;;;;;5015598;28;20627;-77
2023/04/24 07:59:22;;;;;;;1.17;0.70;;;;;;;;;;5015750;28;20665;-76
2023/04/24 08:01:47;;;;;;;1.93;0.80;;;;;;;;;;5015252;28;20037;-77
2023/04/24 08:04:12;;;;;;;2.17;0.68;;;;;;;;;;5014383;28;20330;-77
2023/04/24 08:06:38;;;;;;;1.90;0.73;;;;;;;;;;5014915;28;20477;-77
2023/04/24 08:09:03;;;;;;;2.33;1.50;;;;;;;;;;5014166;28;20018;-76
2023/04/24 08:11:28;;;;;;;1.65;0.70;;;;;;;;;;5015149;28;20425;-76
2023/04/24 08:13:54;;;;;;;0.60;0.60;;;;;;;;;;5014558;28;20485;-77
2023/04/24 08:16:19;;;;;;;2.22;0.77;;;;;;;;;;5013860;28;20022;-77
2023/04/24 08:18:45;;;;;;;1.48;0.55;;;;;;;;;;5015232;28;20037;-76
2023/04/24 08:21:11;;;;;;;6.00;0.87;;;;;;;;;;5014700;28;20029;-77
2023/04/24 08:23:36;;;;;;;4.68;0.93;;;;;;;;;;5013175;28;20335;-76
2023/04/24 08:26:01;;;;;;;0.57;0.50;;;;;;;;;;5014644;28;20034;-77
2023/04/24 08:28:26;;;;;;;1.60;0.80;;;;;;;;;;5013317;28;20247;-77
2023/04/24 08:30:54;;;;;;;2.10;0.60;;;;;;;;;;5014850;28;20022;-77
2023/04/24 08:33:20;;;;;;;1.55;0.90;;;;;;;;;;5014669;28;20026;-77
2023/04/24 08:35:45;;;;;;;2.92;0.80;;;;;;;;;;5014478;28;20065;-77
2023/04/24 08:38:11;;;;;;;3.17;0.70;;;;;;;;;;5014740;28;20041;-77
2023/04/24 08:40:36;;;;;;;1.42;0.70;;;;;;;;;;5014342;28;20030;-78
2023/04/24 08:43:03;;;;;;;1.23;0.50;;;;;;;;;;5013264;28;20366;-76
2023/04/24 08:45:29;;;;;;;3.05;0.60;;;;;;;;;;5013055;28;20026;-76
2023/04/24 08:47:54;;;;;;;1.10;0.80;;;;;;;;;;5014181;28;20052;-76
2023/04/24 08:50:21;;;;;;;2.10;0.60;;;;;;;;;;5014895;28;20025;-76
2023/04/24 08:52:49;;;;;;;2.05;0.68;;;;;;;;;;5014886;28;20444;-76
2023/04/24 08:55:16;;;;;;;0.75;0.50;;;;;;;;;;5014495;28;20025;-77
2023/04/24 08:57:44;;;;;;;1.10;0.60;;;;;;;;;;5014589;28;20046;-77
2023/04/24 09:00:10;;;;;;;1.30;0.50;;;;;;;;;;5014006;28;20477;-77
2023/04/24 09:02:35;;;;;;;1.45;0.60;;;;;;;;;;5014381;28;20088;-77
2023/04/24 09:05:02;;;;;;;2.58;1.00;;;;;;;;;;5015829;28;20054;-75
2023/04/24 09:07:27;;;;;;;4.00;1.25;;;;;;;;;;5018670;28;20581;-76
2023/04/24 09:09:53;;;;;;;2.13;0.60;;;;;;;;;;5016882;28;20061;-77
2023/04/24 09:12:19;;;;;;;6.47;0.50;;;;;;;;;;5019069;28;20029;-77
2023/04/24 09:14:45;;;;;;;2.03;0.50;;;;;;;;;;5017390;28;20022;-77
2023/04/24 09:17:11;;;;;;;0.85;0.57;;;;;;;;;;5018011;28;20026;-77
2023/04/24 09:19:37;;;;;;;1.27;0.50;;;;;;;;;;5018103;28;20029;-76
2023/04/24 09:22:06;;;;;;;1.30;0.50;;;;;;;;;;5016440;28;20168;-77
2023/04/24 09:24:33;;;;;;;0.60;0.60;;;;;;;;;;5017644;28;20393;-77
2023/04/24 09:26:59;;;;;;;1.27;0.40;;;;;;;;;;5017813;28;20029;-77
2023/04/24 09:29:24;;;;;;;0.40;0.40;;;;;;;;;;5015958;28;20057;-77
2023/04/24 09:31:50;;;;;;;2.15;0.60;;;;;;;;;;5017419;28;20076;-78
2023/04/24 09:34:24;;;;;;;5.55;1.00;;;;;;;;;;5017585;28;20034;-76
2023/04/24 09:36:49;;;;;;;;;;;;;;;;;;5018132;28;20579;-77
2023/04/24 09:39:16;;;;;;;2.03;0.60;;;;;;;;;;5016128;28;20008;-77
2023/04/24 09:41:49;;;;;;;1.80;1.20;;;;;;;;;;5017522;28;20025;-77
2023/04/24 09:44:26;;;;;;;1.10;0.50;;;;;;;;;;5017315;28;20030;-77
2023/04/24 09:46:55;;;;;;;1.25;0.65;;;;;;;;;;5016801;28;20401;-76
2023/04/24 09:49:28;;;;;;;0.65;0.50;;;;;;;;;;5017079;28;20026;-77
2023/04/24 09:52:04;;;;;;;2.35;0.70;;;;;;;;;;5017241;28;20040;-77
2023/04/24 09:54:29;;;;;;;3.92;0.50;;;;;;;;;;5016900;28;20030;-76
2023/04/24 09:56:55;;;;;;;1.63;0.55;;;;;;;;;;5017185;28;20025;-78
2023/04/24 09:59:20;;;;;;;3.22;0.60;;;;;;;;;;5017251;28;20030;-77
2023/04/24 10:01:46;;;;;;;1.98;0.82;;;;;;;;;;5017759;28;20114;-77
2023/04/24 10:04:24;;;;;;;0.98;0.47;;;;;;;;;;5016975;28;20030;-78
2023/04/24 10:06:51;;;;;;;0.73;0.65;;;;;;;;;;5017187;28;20026;-76
2023/04/24 10:09:17;;;;;;;0.95;0.60;;;;;;;;;;5015485;28;20477;-76
2023/04/24 10:11:47;;;;;;;1.33;0.80;;;;;;;;;;5015674;28;20025;-76
2023/04/24 10:14:17;;;;;;;1.02;0.55;;;;;;;;;;5016203;28;20392;-77
2023/04/24 10:16:44;;;;;;;0.57;0.43;;;;;;;;;;5014936;28;20045;-77
2023/04/24 10:19:10;;;;;;;2.33;0.77;;;;;;;;;;5015284;28;20475;-77
2023/04/24 10:21:42;;;;;;;1.40;0.47;;;;;;;;;;5016547;28;20469;-76
2023/04/24 10:24:07;;;;;;;2.28;0.60;;;;;;;;;;5015024;28;20507;-76
2023/04/24 10:26:33;;;;;;;1.33;0.63;;;;;;;;;;5016321;28;20104;-77
2023/04/24 10:28:58;;;;;;;1.58;0.60;;;;;;;;;;5016514;28;20064;-77
2023/04/24 10:31:24;;;;;;;2.25;0.60;;;;;;;;;;5015458;28;20112;-77
2023/04/24 10:33:51;;;;;;;0.98;0.63;;;;;;;;;;5016087;28;20503;-77
2023/04/24 10:36:17;;;;;;;0.47;0.47;;;;;;;;;;5015987;28;20120;-77
2023/04/24 10:38:46;;;;;;;0.60;0.50;;;;;;;;;;5014199;28;20029;-77
2023/04/24 10:41:19;;;;;;;0.90;0.60;;;;;;;;;;5015981;28;20113;-77
2023/04/24 10:43:44;;;;;;;1.40;0.60;;;;;;;;;;5014877;28;20029;-77
2023/04/24 10:46:10;;;;;;;1.30;0.70;;;;;;;;;;5016746;28;20034;-77
2023/04/24 10:48:35;;;;;;;0.50;0.50;;;;;;;;;;5016285;28;20097;-76
2023/04/24 10:51:01;;;;;;;0.90;0.60;;;;;;;;;;5015971;28;20097;-77
2023/04/24 10:53:30;;;;;;;1.98;0.50;;;;;;;;;;5015713;28;20036;-76
2023/04/24 10:56:09;;;;;;;0.80;0.60;;;;;;;;;;5015531;28;20030;-77
2023/04/24 10:58:46;;;;;;;1.38;0.40;;;;;;;;;;5016148;28;20030;-77
2023/04/24 11:01:26;;;;;;;0.98;0.68;;;;;;;;;;5014809;28;20033;-76
2023/04/24 11:03:56;;;;;;;1.20;0.70;;;;;;;;;;5014941;28;20026;-77
2023/04/24 11:06:31;;;;;;;2.17;0.80;;;;;;;;;;5016276;28;20026;-76
2023/04/24 11:09:05;;;;;;;0.60;0.60;;;;;;;;;;5015427;28;20080;-76
2023/04/24 11:11:31;;;;;;;0.85;0.70;;;;;;;;;;5015242;28;20095;-77
2023/04/24 11:13:56;;;;;;;2.60;0.60;;;;;;;;;;5016074;28;20041;-77
2023/04/24 11:16:44;;;;;;;2.47;0.70;;;;;;;;;;5016281;28;20030;-77
2023/04/24 11:19:26;;;;;;;1.75;0.50;;;;;;;;;;5016572;28;20022;-77
2023/04/24 11:22:02;;;;;;;1.00;0.73;;;;;;;;;;5016243;28;20341;-77
2023/04/24 11:24:30;;;;;;;1.58;0.70;;;;;;;;;;5015300;28;20049;-77
2023/04/24 11:27:07;;;;;;;2.05;0.60;;;;;;;;;;5013918;28;20497;-77
2023/04/24 11:29:39;;;;;;;1.15;0.50;;;;;;;;;;5014287;28;20025;-77
2023/04/24 11:32:32;;;;;;;1.27;0.50;;;;;;;;;;5015303;28;20025;-77
2023/04/24 11:35:09;;;;;;;1.10;0.70;;;;;;;;;;5015078;28;20037;-77
2023/04/24 11:37:39;;;;;;;1.45;0.80;;;;;;;;;;5013977;28;20022;-77
2023/04/24 11:40:07;;;;;;;3.30;1.05;;;;;;;;;;5014594;28;20326;-77
2023/04/24 11:42:46;;;;;;;2.92;0.50;;;;;;;;;;5014675;28;20060;-77
2023/04/24 11:45:14;;;;;;;2.03;0.75;;;;;;;;;;5014570;28;20095;-77
2023/04/24 11:47:40;;;;;;;0.52;0.47;;;;;;;;;;5014975;28;20037;-77
2023/04/24 11:50:08;;;;;;;1.15;0.60;;;;;;;;;;5014811;28;20021;-77
2023/04/24 11:52:37;;;;;;;0.77;0.63;;;;;;;;;;5014720;28;20021;-78
2023/04/24 11:55:03;;;;;;;1.13;0.60;;;;;;;;;;5014420;28;20022;-77
2023/04/24 11:57:33;;;;;;;0.65;0.57;;;;;;;;;;5015417;28;20022;-77
2023/04/24 11:59:59;;;;;;;1.08;0.50;;;;;;;;;;5015113;28;20108;-77
2023/04/24 12:02:26;;;;;;;0.60;0.52;;;;;;;;;;5014858;28;20060;-77
2023/04/24 12:04:53;;;;;;;1.05;0.70;;;;;;;;;;5014911;28;20025;-77
2023/04/24 12:07:19;;;;;;;2.70;0.75;;;;;;;;;;5014618;28;20034;-77
2023/04/24 12:09:46;;;;;;;3.55;0.70;;;;;;;;;;5014902;28;20097;-77
2023/04/24 12:12:13;;;;;;;4.60;0.60;;;;;;;;;;5014932;28;20112;-77
2023/04/24 12:14:49;;;;;;;1.95;0.77;;;;;;;;;;5013516;28;20030;-76
2023/04/24 12:17:16;;;;;;;0.52;0.43;;;;;;;;;;5013385;28;20022;-77
2023/04/24 12:19:46;;;;;;;1.38;0.60;;;;;;;;;;5013489;28;20037;-77
2023/04/24 12:22:12;;;;;;;1.17;0.65;;;;;;;;;;5014666;28;20050;-77
2023/04/24 12:24:56;;;;;;;1.42;0.65;;;;;;;;;;5014426;28;20477;-76
2023/04/24 12:27:21;;;;;;;0.93;0.80;;;;;;;;;;5014514;28;20103;-76
2023/04/24 12:29:55;;;;;;;1.95;0.63;;;;;;;;;;5012713;28;20072;-76
2023/04/24 12:32:20;;;;;;;0.93;0.60;;;;;;;;;;5015060;28;20370;-76
2023/04/24 12:34:46;;;;;;;10.27;0.68;;;;;;;;;;5013159;28;20036;-77
2023/04/24 12:37:11;;;;;;;1.33;0.60;;;;;;;;;;5013252;28;20029;-77
2023/04/24 12:39:37;;;;;;;4.95;0.60;;;;;;;;;;5016036;28;20294;-76
2023/04/24 12:42:02;;;;;;;1.17;0.67;;;;;;;;;;5017538;28;20481;-77
2023/04/24 12:44:34;;;;;;;3.90;0.70;;;;;;;;;;5018430;28;20607;-76
2023/04/24 12:47:00;;;;;;;5.50;0.57;;;;;;;;;;5018396;28;20389;-77
2023/04/24 12:49:25;;;;;;;3.60;0.63;;;;;;;;;;5017753;28;20018;-77
2023/04/24 12:51:51;;;;;;;3.53;0.80;;;;;;;;;;5018913;28;20026;-76
2023/04/24 12:54:16;;;;;;;2.00;0.85;;;;;;;;;;5018103;28;20049;-77
2023/04/24 12:56:41;;;;;;;4.18;0.80;;;;;;;;;;5019087;28;20021;-77
2023/04/24 12:59:06;;;;;;;2.95;1.17;;;;;;;;;;5017979;28;20026;-77
2023/04/24 13:01:32;;;;;;;1.50;0.90;;;;;;;;;;5016912;28;20072;-77
2023/04/24 13:03:57;;;;;;;4.72;0.85;;;;;;;;;;5017698;28;20282;-76
2023/04/24 13:06:22;;;;;;;1.83;0.73;;;;;;;;;;5017872;28;20068;-77
2023/04/24 13:08:48;;;;;;;2.40;0.60;;;;;;;;;;5018486;28;20274;-77
2023/04/24 13:11:13;;;;;;;1.92;0.57;;;;;;;;;;5016874;28;20264;-77
2023/04/24 13:13:39;;;;;;;4.72;0.52;;;;;;;;;;5017561;28;20034;-77
2023/04/24 13:16:04;;;;;;;2.88;0.70;;;;;;;;;;5017599;28;20041;-75
2023/04/24 13:18:29;;;;;;;2.78;0.82;;;;;;;;;;5018088;28;20033;-77
2023/04/24 13:20:55;;;;;;;2.90;0.80;;;;;;;;;;5017541;28;20033;-76
2023/04/24 13:23:20;;;;;;;1.05;0.75;;;;;;;;;;5018145;28;20781;-76
2023/04/24 13:25:47;;;;;;;1.23;0.80;;;;;;;;;;5017334;28;20033;-77
2023/04/24 13:28:12;;;;;;;1.67;0.70;;;;;;;;;;5017558;28;20078;-76
2023/04/24 13:30:37;;;;;;;0.80;0.60;;;;;;;;;;5017170;28;20071;-76
2023/04/24 13:33:03;;;;;;;0.93;0.70;;;;;;;;;;5015395;28;20073;-76
2023/04/24 13:35:28;;;;;;;1.50;0.70;;;;;;;;;;5016799;28;20062;-76
2023/04/24 13:37:53;;;;;;;1.95;0.73;;;;;;;;;;5016822;28;20274;-76
2023/04/24 13:40:18;;;;;;;13.50;1.03;;;;;;;;;;5015493;28;20061;-76
2023/04/24 13:42:44;;;;;;;1.58;0.80;;;;;;;;;;5017678;28;20275;-75
2023/04/24 13:45:10;;;;;;;5.35;0.93;;;;;;;;;;5016658;28;20461;-77
2023/04/24 13:47:35;;;;;;;1.60;0.80;;;;;;;;;;5015521;28;20096;-77
2023/04/24 13:50:01;;;;;;;3.15;0.80;;;;;;;;;;5016232;28;20025;-77
2023/04/24 13:52:26;;;;;;;0.82;0.70;;;;;;;;;;5015805;28;20030;-76
2023/04/24 13:54:51;;;;;;;0.80;0.80;;;;;;;;;;5015010;28;20404;-76
2023/04/24 13:57:17;;;;;;;7.70;0.90;;;;;;;;;;5016774;28;20818;-76
2023/04/24 13:59:42;;;;;;;0.68;0.68;;;;;;;;;;5015291;28;20026;-77
2023/04/24 14:02:07;;;;;;;0.70;0.70;;;;;;;;;;5016634;28;20049;-77
2023/04/24 14:04:32;;;;;;;1.60;0.80;;;;;;;;;;5014611;28;20068;-77
2023/04/24 14:06:58;;;;;;;0.70;0.60;;;;;;;;;;5015837;28;20259;-77
2023/04/24 14:09:23;;;;;;;0.90;0.70;;;;;;;;;;5016994;28;20374;-77
2023/04/24 14:11:48;;;;;;;3.53;0.90;;;;;;;;;;5015718;28;20310;-76
2023/04/24 14:14:14;;;;;;;5.00;1.10;;;;;;;;;;5017077;28;20477;-76
2023/04/24 14:16:39;;;;;;;5.00;1.10;;;;;;;;;;5015860;28;20026;-77
2023/04/24 14:19:05;;;;;;;2.97;0.90;;;;;;;;;;5015920;28;20041;-77
2023/04/24 14:21:30;;;;;;;2.75;0.85;;;;;;;;;;5015819;28;20030;-76
2023/04/24 14:23:56;;;;;;;0.80;0.70;;;;;;;;;;5015835;28;20041;-77
2023/04/24 14:26:21;;;;;;;1.27;0.80;;;;;;;;;;5016923;28;20029;-76
2023/04/24 14:28:46;;;;;;;1.55;1.00;;;;;;;;;;5017132;28;20259;-76
2023/04/24 14:31:12;;;;;;;0.80;0.80;;;;;;;;;;5015967;28;20026;-77
2023/04/24 14:33:37;;;;;;;2.37;0.90;;;;;;;;;;5017042;28;20259;-76
2023/04/24 14:36:04;;;;;;;2.43;0.80;;;;;;;;;;5016044;28;20279;-76
2023/04/24 14:38:30;;;;;;;3.83;0.90;;;;;;;;;;5015372;28;20275;-76